Advantage Pride — V7TX3 — position and weather

sailwx.info

Track history (hours):
 
Tides and Currents Weather Stations Pressure Air Temp Water Temp Dewpoint Dewpoint Depression Visibility Wind Speed Wind Dir Waves Ship Positions

Advantage Pride

Last reported at 2018-Jun-22 18:42 UTC. Time now 2018-Jun-23 16:03 UTC.
Position N 43°09' E 033°38'.

Length 183 m; draft 7 m.

Type: Tanker. MMSI: 538007534.

Date/timePositionNaut miles runAvg speedWind from/ knotsBaromVisibWave heightAir tempDewpointWater temp
2018-Jun-22 18:42N 43°09' E 033°38'314.3
2018-Jun-22 18:30N 43°07' E 033°35'1014.3
2018-Jun-22 17:50N 43°03' E 033°23'1014.2
2018-Jun-22 17:08N 42°58' E 033°11'214.2
2018-Jun-22 16:58N 42°57' E 033°08'714.2
2018-Jun-22 16:30N 42°55' E 033°00'714.0
2018-Jun-22 16:00N 42°52' E 032°52'714.1
2018-Jun-22 15:30N 42°48' E 032°43'714.1
2018-Jun-22 15:01N 42°45' E 032°34'714.0
2018-Jun-22 14:31N 42°42' E 032°26'713.8
2018-Jun-22 14:00N 42°39' E 032°18'713.9
2018-Jun-22 13:30N 42°36' E 032°09'714.1
2018-Jun-22 13:00N 42°33' E 032°01'714.0
2018-Jun-22 12:30N 42°29' E 031°52'714.0
2018-Jun-22 12:00N 42°26' E 031°44'3014.2
2018-Jun-22 09:53N 42°11' E 031°08'2413.9
2018-Jun-22 08:08N 41°59' E 030°40'214.0
2018-Jun-22 08:00N 41°58' E 030°38'714.1
2018-Jun-22 07:31N 41°54' E 030°30'714.1
2018-Jun-22 07:00N 41°51' E 030°22'714.2
2018-Jun-22 06:30N 41°47' E 030°14'1614.0
2018-Jun-22 05:23N 41°39' E 029°56'2514.4
2018-Jun-22 03:40N 41°26' E 029°28'214.0
2018-Jun-22 03:30N 41°25' E 029°25'814.0
2018-Jun-22 02:55N 41°20' E 029°16'714.1
2018-Jun-22 02:26N 41°15' E 029°10'1810.4
2018-Jun-22 00:40N 40°59' E 028°59'1 5.9
2018-Jun-22 00:25N 40°57' E 028°59'4 5.9
2018-Jun-21 23:49N 40°56' E 028°55'2 5.5
2018-Jun-21 23:30N 40°56' E 028°53'0 0.7
2018-Jun-21 22:58N 40°56' E 028°52'  
2018-Jun-17 16:08N 37°44' E 024°18'1010.7
2018-Jun-17 15:10N 37°35' E 024°12'  
Track history (hours):
 
Tides and Currents Weather Stations Pressure Air Temp Water Temp Dewpoint Dewpoint Depression Visibility Wind Speed Wind Dir Waves Ship Positions

Advantage Pride

Last reported at 2018-Jun-22 18:42 UTC. Time now 2018-Jun-23 16:03 UTC.
Position N 43°09' E 033°38'.

Length 183 m; draft 7 m.

Type: Tanker. MMSI: 538007534.

Date/timePositionNaut miles runAvg speedWind from/ knotsBaromVisibWave heightAir tempDewpointWater temp
2018-Jun-22 18:42N 43°09' E 033°38'314.3
2018-Jun-22 18:30N 43°07' E 033°35'1014.3
2018-Jun-22 17:50N 43°03' E 033°23'1014.2
2018-Jun-22 17:08N 42°58' E 033°11'214.2
2018-Jun-22 16:58N 42°57' E 033°08'714.2
2018-Jun-22 16:30N 42°55' E 033°00'714.0
2018-Jun-22 16:00N 42°52' E 032°52'714.1
2018-Jun-22 15:30N 42°48' E 032°43'714.1
2018-Jun-22 15:01N 42°45' E 032°34'714.0
2018-Jun-22 14:31N 42°42' E 032°26'713.8
2018-Jun-22 14:00N 42°39' E 032°18'713.9
2018-Jun-22 13:30N 42°36' E 032°09'714.1
2018-Jun-22 13:00N 42°33' E 032°01'714.0
2018-Jun-22 12:30N 42°29' E 031°52'714.0
2018-Jun-22 12:00N 42°26' E 031°44'3014.2
2018-Jun-22 09:53N 42°11' E 031°08'2413.9
2018-Jun-22 08:08N 41°59' E 030°40'214.0
2018-Jun-22 08:00N 41°58' E 030°38'714.1
2018-Jun-22 07:31N 41°54' E 030°30'714.1
2018-Jun-22 07:00N 41°51' E 030°22'714.2
2018-Jun-22 06:30N 41°47' E 030°14'1614.0
2018-Jun-22 05:23N 41°39' E 029°56'2514.4
2018-Jun-22 03:40N 41°26' E 029°28'214.0
2018-Jun-22 03:30N 41°25' E 029°25'814.0
2018-Jun-22 02:55N 41°20' E 029°16'714.1
2018-Jun-22 02:26N 41°15' E 029°10'1810.4
2018-Jun-22 00:40N 40°59' E 028°59'1 5.9
2018-Jun-22 00:25N 40°57' E 028°59'4 5.9
2018-Jun-21 23:49N 40°56' E 028°55'2 5.5
2018-Jun-21 23:30N 40°56' E 028°53'0 0.7
2018-Jun-21 22:58N 40°56' E 028°52'  
2018-Jun-17 16:08N 37°44' E 024°18'1010.7
2018-Jun-17 15:10N 37°35' E 024°12'  

Dump ship's entire track history